Map

Track Data

SID SEASON NUMBER BASIN SUBBASIN NAME ISO_TIME NATURE LAT LON WMO_WIND WMO_PRES WMO_AGENCY TRACK_TYPE DIST2LAND LANDFALL IFLAG USA_AGENCY USA_ATCF_ID USA_LAT USA_LON USA_RECORD USA_STATUS USA_WIND USA_PRES USA_SSHS USA_R34_NE USA_R34_SE USA_R34_SW USA_R34_NW USA_R50_NE USA_R50_SE USA_R50_SW USA_R50_NW USA_R64_NE USA_R64_SE USA_R64_SW USA_R64_NW USA_POCI USA_ROCI USA_RMW USA_EYE TOKYO_LAT TOKYO_LON TOKYO_GRADE TOKYO_WIND TOKYO_PRES TOKYO_R50_DIR TOKYO_R50_LONG TOKYO_R50_SHORT TOKYO_R30_DIR TOKYO_R30_LONG TOKYO_R30_SHORT TOKYO_LAND CMA_LAT CMA_LON CMA_CAT CMA_WIND CMA_PRES HKO_LAT HKO_LON HKO_CAT HKO_WIND HKO_PRES NEWDELHI_LAT NEWDELHI_LON NEWDELHI_GRADE NEWDELHI_WIND NEWDELHI_PRES NEWDELHI_CI NEWDELHI_DP NEWDELHI_POCI REUNION_LAT REUNION_LON REUNION_TYPE REUNION_WIND REUNION_PRES REUNION_TNUM REUNION_CI REUNION_RMW REUNION_R34_NE REUNION_R34_SE REUNION_R34_SW REUNION_R34_NW REUNION_R50_NE REUNION_R50_SE REUNION_R50_SW REUNION_R50_NW REUNION_R64_NE REUNION_R64_SE REUNION_R64_SW REUNION_R64_NW BOM_LAT BOM_LON BOM_TYPE BOM_WIND BOM_PRES BOM_TNUM BOM_CI BOM_RMW BOM_R34_NE BOM_R34_SE BOM_R34_SW BOM_R34_NW BOM_R50_NE BOM_R50_SE BOM_R50_SW BOM_R50_NW BOM_R64_NE BOM_R64_SE BOM_R64_SW BOM_R64_NW BOM_ROCI BOM_POCI BOM_EYE BOM_POS_METHOD BOM_PRES_METHOD NADI_LAT NADI_LON NADI_CAT NADI_WIND NADI_PRES WELLINGTON_LAT WELLINGTON_LON WELLINGTON_WIND WELLINGTON_PRES DS824_LAT DS824_LON DS824_STAGE DS824_WIND DS824_PRES TD9636_LAT TD9636_LON TD9636_STAGE TD9636_WIND TD9636_PRES TD9635_LAT TD9635_LON TD9635_WIND TD9635_PRES TD9635_ROCI NEUMANN_LAT NEUMANN_LON NEUMANN_CLASS NEUMANN_WIND NEUMANN_PRES MLC_LAT MLC_LON MLC_CLASS MLC_WIND MLC_PRES USA_GUST BOM_GUST BOM_GUST_PER REUNION_GUST REUNION_GUST_PER USA_SEAHGT USA_SEARAD_NE USA_SEARAD_SE USA_SEARAD_SW USA_SEARAD_NW STORM_SPEED STORM_DIR
1945063S15142 1945 15 SP EA NOT_NAMED 1945-03-03 23:00:00 NR -15.1000 141.950 999 bom main 0 0 ______O___O___ -1 -15.2000 141.900 999 -15.0000 142.000 7 2 225
1945063S15142 1945 15 SP EA NOT_NAMED 1945-03-04 00:00:00 TS -15.1280 141.936 main 0 0 O_____P__OP___ jtwc_sh SH091945 -15.1000 142.000 -1 -15.1764 141.824 -15.2000 141.900 TC 30 999 -15.0716 142.002 7 3 211
1945063S15142 1945 15 SP EA NOT_NAMED 1945-03-04 03:00:00 TS -15.2475 141.859 main 0 0 P_____P__PP___ SH091945 -15.2350 141.940 -1 -15.1129 141.605 -15.4244 141.860 TC -15.2809 142.005 7 3 208
1945063S15142 1945 15 SP EA NOT_NAMED 1945-03-04 06:00:00 TS -15.3844 141.796 main 0 0 O_____P__PP___ jtwc_sh SH091945 -15.4000 141.900 -1 -15.0752 141.417 -15.6509 141.832 TC -15.4702 141.992 7 3 196
1945063S15142 1945 15 SP EA NOT_NAMED 1945-03-04 09:00:00 TS -15.5608 141.769 main 0 0 P_____P__PP___ SH091945 -15.6075 141.892 -1 -15.0832 141.280 -15.8817 141.829 TC -15.6243 141.950 7 3 188
1945063S15142 1945 15 SP EA NOT_NAMED 1945-03-04 11:00:00 TS -15.6694 141.754 main 0 0 P_____P__PO___ SH091945 -15.7421 141.897 -1 -15.1235 141.229 -16.0391 141.848 TC -15.7000 141.900 7 3 0
1945063S15142 1945 15 SP EA NOT_NAMED 1945-03-04 12:00:00 TS -15.7208 141.750 main 0 0 O_____P__PP___ jtwc_sh SH091945 -15.8000 141.900 -1 -15.1564 141.219 -16.1191 141.865 TC -15.7286 141.868 7 3 0
1945063S15142 1945 15 SP EA NOT_NAMED 1945-03-04 15:00:00 TS -15.8557 141.754 main 0 0 P_____P__PP___ SH091945 -15.9000 141.900 -1 -15.3146 141.254 -16.3652 141.951 TC -15.7986 141.764 7 3 169
1945063S15142 1945 15 SP EA NOT_NAMED 1945-03-04 18:00:00 TS -16.0192 141.803 main 0 0 O_____P__PP___ jtwc_sh SH091945 -16.0000 141.900 -1 -15.5773 141.410 -16.6222 142.101 TC -15.8962 141.705 7 4 161
1945063S15142 1945 15 SP EA NOT_NAMED 1945-03-04 21:00:00 TS -16.2327 141.890 main 0 0 P_____P__PP___ SH091945 -16.1098 141.826 -1 -15.9639 141.709 -16.8924 142.327 TC -16.0877 141.762 7 6 154
1945063S15142 1945 15 SP EA NOT_NAMED 1945-03-04 23:00:00 TS -16.4445 142.023 997 bom main 0 0 P_____O__PO___ SH091945 -16.2709 141.843 -1 -16.3000 142.000 997 4 -17.0807 142.527 TC -16.3000 141.900 7 8 148
1945063S15142 1945 15 SP EA NOT_NAMED 1945-03-05 00:00:00 TS -16.5877 142.124 main 0 0 O_____P__PP___ jtwc_sh SH091945 -16.4000 141.900 -1 -16.4928 142.175 -17.1775 142.644 TC -16.4679 142.000 7 13 144
1945063S15142 1945 15 SP EA NOT_NAMED 1945-03-05 03:00:00 TS -17.1569 142.567 main 0 0 P_____P__PP___ SH091945 -17.0398 142.272 -1 -17.1360 142.803 -17.4796 143.063 TC -17.0893 142.426 7 16 140
1945063S15142 1945 15 SP EA NOT_NAMED 1945-03-05 06:00:00 TS -17.7995 143.192 main 0 0 O_____P__OP___ jtwc_sh SH091945 -17.8000 142.900 -1 -17.7949 143.540 -17.8000 143.600 TC -17.8027 143.019 7 18 136
1945063S15142 1945 15 SP EA NOT_NAMED 1945-03-05 07:00:00 TS -18.0015 143.425 bom main 0 0 P_____O__PP___ SH091945 -18.0271 143.135 -1 -18.0000 143.800 -17.9111 143.807 TC -18.0420 143.248 7 18 130
1945063S15142 1945 15 SP EA NOT_NAMED 1945-03-05 09:00:00 TS -18.3787 143.930 main 0 0 P_____P__PP___ SH091945 -18.4599 143.675 -1 -18.3355 144.290 -18.1395 144.261 TC -18.4990 143.750 7 19 125
1945063S15142 1945 15 SP EA NOT_NAMED 1945-03-05 11:00:00 TS -18.7169 144.486 main 0 0 P_____P__PO___ SH091945 -18.8394 144.281 -1 -18.6300 144.802 -18.3756 144.764 TC -18.9000 144.300 7 19 121
1945063S15142 1945 15 SP EA NOT_NAMED 1945-03-05 12:00:00 TS -18.8609 144.776 main 0 0 O_____P__PP___ jtwc_sh SH091945 -19.0000 144.600 -1 -18.7644 145.065 -18.4963 145.032 TC -19.0437 144.581 7 19 114
1945063S15142 1945 15 SP EA NOT_NAMED 1945-03-05 15:00:00 TS -19.2189 145.691 main 0 0 P_____P__PP___ SH091945 -19.3524 145.586 -1 -19.1291 145.886 -18.8682 145.889 TC -19.3924 145.511 7 19 110
1945063S15142 1945 15 SP EA NOT_NAMED 1945-03-05 18:00:00 TS -19.5123 146.656 main 0 0 O_____P__PP___ jtwc_sh SH091945 -19.6000 146.600 -1 -19.4576 146.753 -19.2533 146.811 TC -19.6508 146.518 7 19 108
1945063S15142 1945 15 SP EA NOT_NAMED 1945-03-05 21:00:00 TS -19.8009 147.626 main 0 0 P_____P__PP___ SH091945 -19.8571 147.573 -1 -19.7776 147.666 -19.6499 147.776 TC -19.8626 147.541 7 19 108
1945063S15142 1945 15 SP EA NOT_NAMED 1945-03-05 23:00:00 TS -19.9917 148.265 997 bom main 0 0 P_____O__PO___ SH091945 -20.0191 148.198 -1 -20.0000 148.300 997 -19.9201 148.431 TC -20.0000 148.200 7 19 108
1945063S15142 1945 15 SP EA NOT_NAMED 1945-03-06 00:00:00 TS -20.0898 148.577 main 11 11 O_____P__PP___ jtwc_sh SH091945 -20.1000 148.500 -1 -20.1212 148.630 -20.0569 148.760 TC -20.0708 148.494 7 18 109
1945063S15142 1945 15 SP EA NOT_NAMED 1945-03-06 03:00:00 TS -20.3863 149.493 main 63 63 P_____P__PP___ SH091945 -20.3494 149.365 -1 -20.4868 149.648 -20.4736 149.743 TC -20.2725 149.345 7 18 110
1945063S15142 1945 15 SP EA NOT_NAMED 1945-03-06 06:00:00 TS -20.6915 150.389 main 132 132 O_____P__OP___ jtwc_sh SH091945 -20.6000 150.200 -1 -20.8671 150.669 -20.9000 150.700 TC -20.4904 150.174 7 18 110
1945063S15142 1945 15 SP EA NOT_NAMED 1945-03-06 07:00:00 TS -20.7894 150.680 bom main 159 159 P_____O__PP___ SH091945 -20.6644 150.468 -1 -21.0000 151.000 -21.0443 151.010 TC -20.5737 150.452 7 17 111
1945063S15142 1945 15 SP EA NOT_NAMED 1945-03-06 09:00:00 TS -20.9967 151.258 main 168 162 P_____P__PP___ SH091945 -20.7964 151.007 -1 -21.2891 151.645 -21.3362 151.615 TC -20.7652 151.016 7 18 112
1945063S15142 1945 15 SP EA NOT_NAMED 1945-03-06 11:00:00 TS -21.2359 151.849 main 175 174 P_____P__PO___ SH091945 -20.9760 151.583 -1 -21.5958 152.273 -21.6319 152.204 TC -21.0000 151.600 7 19 114
1945063S15142 1945 15 SP EA NOT_NAMED 1945-03-06 12:00:00 TS -21.3777 152.162 main 189 189 O_____P__PP___ jtwc_sh SH091945 -21.1000 151.900 -1 -21.7539 152.581 -21.7809 152.493 TC -21.1536 151.935 7 21 118
1945063S15142 1945 15 SP EA NOT_NAMED 1945-03-06 15:00:00 TS -21.8968 153.182 main 255 255 P_____P__PP___ SH091945 -21.6636 153.056 -1 -22.2399 153.472 -22.2321 153.341 TC -21.6848 152.983 7 22 120
1945063S15142 1945 15 SP EA NOT_NAMED 1945-03-06 18:00:00 TS -22.4574 154.185 main 272 264 O_____P__PP___ jtwc_sh SH091945 -22.3000 154.200 -1 -22.7286 154.316 -22.6875 154.170 TC -22.2711 154.039 7 20 122
1945063S15142 1945 15 SP EA NOT_NAMED 1945-03-06 21:00:00 TS -22.9649 155.066 main 271 270 P_____P__PP___ SH091945 -22.8367 155.098 -1 -23.2020 155.106 -23.1444 154.986 TC -22.8494 155.023 7 18 122
1945063S15142 1945 15 SP EA NOT_NAMED 1945-03-06 23:00:00 TS -23.2745 155.586 999 bom main 287 287 P_____O__PO___ SH091945 -23.1554 155.586 -1 -23.5000 155.600 999 -23.4485 155.529 TC -23.2000 155.600 7 16 123
1945063S15142 1945 15 SP EA NOT_NAMED 1945-03-07 00:00:00 TS -23.4079 155.818 main 297 297 O_____P__OP___ jtwc_sh SH091945 -23.3000 155.800 -1 -23.6419 155.837 -23.6000 155.800 TC 30 999 -23.3419 155.840 7 14 124
1945063S15142 1945 15 SP EA NOT_NAMED 1945-03-07 03:00:00 TS -23.7770 156.410 main 331 331 P_____P___P___ SH091945 -23.6717 156.339 -1 -24.0392 156.507 TC -23.7254 156.455 7 12 125
1945063S15142 1945 15 SP EA NOT_NAMED 1945-03-07 06:00:00 TS -24.1160 156.920 main 367 367 O_____P___P___ jtwc_sh SH091945 -24.0000 156.800 -1 -24.3989 157.124 TC -24.0652 156.955 7 12 125
1945063S15142 1945 15 SP EA NOT_NAMED 1945-03-07 09:00:00 TS -24.4531 157.450 main 407 407 P_____P___P___ SH091945 -24.3500 157.350 -1 -24.7268 157.696 TC -24.3856 157.402 7 12 125
1945063S15142 1945 15 SP EA NOT_NAMED 1945-03-07 11:00:00 TS -24.6743 157.799 main 444 444 P_____P___O___ SH091945 -24.5833 157.720 -1 -24.9306 158.055 TC -24.6000 157.700 7 12 125
1945063S15142 1945 15 SP EA NOT_NAMED 1945-03-07 12:00:00 TS -24.7967 157.981 main 464 464 O_____P___P___ jtwc_sh SH091945 -24.7000 157.900 -1 -25.0287 158.229 TC -24.7098 157.855 7 12 126
1945063S15142 1945 15 SP EA NOT_NAMED 1945-03-07 15:00:00 TS -25.1367 158.498 main 513 513 P_____P___P___ SH091945 -25.0502 158.412 -1 -25.3099 158.734 TC -25.0499 158.349 7 11 126
1945063S15142 1945 15 SP EA NOT_NAMED 1945-03-07 18:00:00 TS -25.4667 159.010 main 565 565 O_____P___P___ jtwc_sh SH091945 -25.4000 158.900 -1 -25.5761 159.217 -25.4019 158.877 7 12 125
1945063S15142 1945 15 SP EA NOT_NAMED 1945-03-07 21:00:00 NR -25.7962 159.558 main 628 628 ______P___P___ SH091945 -1 -25.8322 159.689 -25.7602 159.427 7 12 124
1945063S15142 1945 15 SP EA NOT_NAMED 1945-03-07 23:00:00 NR -26.0000 159.900 1001 bom main 661 ______O___O___ SH091945 -1 -26.0000 160.000 1001 -26.0000 159.800 7 11 124

Digital Typhoon Data and Search

About IBTrACS Database

This database is a web-friendly format of International Best Track Archive for Climate Stewardship (IBTrACS), a global best track data archive curated by NOAA dating back to 1842.

Updated: 2021-11-26